Time,TemperatureF,DewpointF,PressureIn,WindDirection,WindDirectionDegrees,WindSpeedMPH,WindSpeedGustMPH,Humidity,HourlyPrecipIn,Conditions,Clouds,dailyrainin,SoftwareType,DateUTC
2013-06-30 00:00:00,68.0,43.5,29.97,North,-999,-999.0,-999.0,41,0.00,,,0.00,WSDL version 420,2013-06-29 22:00:00,
2013-06-30 00:05:00,68.0,43.0,29.97,North,-999,-999.0,-999.0,40,0.00,,,0.00,WSDL version 420,2013-06-29 22:05:00,
2013-06-30 00:12:00,68.0,42.8,29.97,North,-999,-999.0,-999.0,40,0.00,,,0.00,WSDL version 420,2013-06-29 22:12:00,
2013-06-30 00:19:00,67.8,43.3,29.97,North,-999,-999.0,-999.0,41,0.00,,,0.00,WSDL version 420,2013-06-29 22:19:00,
2013-06-30 00:24:00,67.9,43.0,29.97,North,-999,-999.0,-999.0,40,0.00,,,0.00,WSDL version 420,2013-06-29 22:24:00,
2013-06-30 00:29:00,67.8,43.3,29.97,North,-999,-999.0,-999.0,41,0.00,,,0.00,WSDL version 420,2013-06-29 22:29:00,
2013-06-30 00:34:00,67.9,43.0,29.97,North,-999,-999.0,-999.0,40,0.00,,,0.00,WSDL version 420,2013-06-29 22:34:00,
2013-06-30 00:40:00,67.9,43.2,29.97,North,-999,-999.0,-999.0,40,0.00,,,0.00,WSDL version 420,2013-06-29 22:40:00,
2013-06-30 00:47:00,67.4,42.9,29.97,North,-999,-999.0,-999.0,41,0.00,,,0.00,WSDL version 420,2013-06-29 22:47:00,
2013-06-30 00:57:00,67.2,43.4,29.97,North,-999,-999.0,-999.0,42,0.00,,,0.00,WSDL version 420,2013-06-29 22:57:00,
2013-06-30 01:06:00,67.1,43.1,29.97,North,-999,-999.0,-999.0,41,0.00,,,0.00,WSDL version 420,2013-06-29 23:06:00,
2013-06-30 01:11:00,66.9,42.8,29.97,North,-999,-999.0,-999.0,42,0.00,,,0.00,WSDL version 420,2013-06-29 23:11:00,
2013-06-30 01:16:00,66.5,42.9,29.97,North,-999,-999.0,-999.0,43,0.00,,,0.00,WSDL version 420,2013-06-29 23:16:00,
2013-06-30 01:26:00,66.1,43.4,29.97,North,-999,-999.0,-999.0,44,0.00,,,0.00,WSDL version 420,2013-06-29 23:26:00,
2013-06-30 01:33:00,65.9,43.2,29.97,North,-999,-999.0,-999.0,44,0.00,,,0.00,WSDL version 420,2013-06-29 23:33:00,
2013-06-30 01:39:00,65.7,43.2,29.97,North,-999,-999.0,-999.0,44,0.00,,,0.00,WSDL version 420,2013-06-29 23:39:00,
2013-06-30 01:44:00,65.8,42.9,29.97,North,-999,-999.0,-999.0,44,0.00,,,0.00,WSDL version 420,2013-06-29 23:44:00,
2013-06-30 01:49:00,65.7,43.2,29.97,North,-999,-999.0,-999.0,44,0.00,,,0.00,WSDL version 420,2013-06-29 23:49:00,
2013-06-30 01:54:00,65.7,43.2,29.97,North,-999,-999.0,-999.0,44,0.00,,,0.00,WSDL version 420,2013-06-29 23:54:00,
2013-06-30 02:01:00,65.7,43.2,29.97,North,-999,-999.0,-999.0,44,0.00,,,0.00,WSDL version 420,2013-06-30 00:01:00,
2013-06-30 02:08:00,65.7,43.2,29.97,North,-999,-999.0,-999.0,44,0.00,,,0.00,WSDL version 420,2013-06-30 00:08:00,
2013-06-30 02:18:00,65.0,43.2,29.97,North,-999,-999.0,-999.0,45,0.00,,,0.00,WSDL version 420,2013-06-30 00:18:00,
2013-06-30 02:26:00,64.8,42.9,29.97,North,-999,-999.0,-999.0,45,0.00,,,0.00,WSDL version 420,2013-06-30 00:26:00,
2013-06-30 02:31:00,64.6,42.8,29.97,North,-999,-999.0,-999.0,45,0.00,,,0.00,WSDL version 420,2013-06-30 00:31:00,
2013-06-30 02:36:00,64.5,42.7,29.97,North,-999,-999.0,-999.0,45,0.00,,,0.00,WSDL version 420,2013-06-30 00:36:00,
2013-06-30 02:47:00,64.5,42.9,29.97,North,-999,-999.0,-999.0,45,0.00,,,0.00,WSDL version 420,2013-06-30 00:47:00,
2013-06-30 02:53:00,64.2,43.0,29.97,North,-999,-999.0,-999.0,46,0.00,,,0.00,WSDL version 420,2013-06-30 00:53:00,
2013-06-30 03:00:00,63.9,42.8,29.97,North,-999,-999.0,-999.0,46,0.00,,,0.00,WSDL version 420,2013-06-30 01:00:00,
2013-06-30 03:05:00,63.9,42.7,29.97,North,-999,-999.0,-999.0,46,0.00,,,0.00,WSDL version 420,2013-06-30 01:05:00,
2013-06-30 03:10:00,63.7,42.6,29.97,North,-999,-999.0,-999.0,46,0.00,,,0.00,WSDL version 420,2013-06-30 01:10:00,
2013-06-30 03:15:00,63.4,42.5,29.97,North,-999,-999.0,-999.0,47,0.00,,,0.00,WSDL version 420,2013-06-30 01:15:00,
2013-06-30 03:22:00,63.7,43.0,29.97,North,-999,-999.0,-999.0,46,0.00,,,0.00,WSDL version 420,2013-06-30 01:22:00,
2013-06-30 03:29:00,63.3,42.8,29.97,North,-999,-999.0,-999.0,47,0.00,,,0.00,WSDL version 420,2013-06-30 01:29:00,
2013-06-30 03:34:00,63.1,42.5,29.97,North,-999,-999.0,-999.0,47,0.00,,,0.00,WSDL version 420,2013-06-30 01:34:00,
2013-06-30 03:39:00,63.0,42.4,29.97,North,-999,-999.0,-999.0,47,0.00,,,0.00,WSDL version 420,2013-06-30 01:39:00,
2013-06-30 03:44:00,62.7,42.5,29.97,North,-999,-999.0,-999.0,48,0.00,,,0.00,WSDL version 420,2013-06-30 01:44:00,
2013-06-30 03:50:00,62.4,42.5,29.97,North,-999,-999.0,-999.0,48,0.00,,,0.00,WSDL version 420,2013-06-30 01:50:00,
2013-06-30 03:57:00,61.9,42.6,29.97,North,-999,-999.0,-999.0,49,0.00,,,0.00,WSDL version 420,2013-06-30 01:57:00,
2013-06-30 04:07:00,61.7,42.4,29.97,North,-999,-999.0,-999.0,49,0.00,,,0.00,WSDL version 420,2013-06-30 02:07:00,
2013-06-30 04:16:00,62.2,42.8,29.97,North,-999,-999.0,-999.0,49,0.00,,,0.00,WSDL version 420,2013-06-30 02:16:00,
2013-06-30 04:21:00,62.2,42.9,29.97,North,-999,-999.0,-999.0,49,0.00,,,0.00,WSDL version 420,2013-06-30 02:21:00,
2013-06-30 04:26:00,62.2,42.9,29.97,North,-999,-999.0,-999.0,49,0.00,,,0.00,WSDL version 420,2013-06-30 02:26:00,
2013-06-30 04:36:00,62.2,42.9,29.97,North,-999,-999.0,-999.0,49,0.00,,,0.00,WSDL version 420,2013-06-30 02:36:00,
2013-06-30 04:42:00,61.9,42.6,29.97,North,-999,-999.0,-999.0,49,0.00,,,0.00,WSDL version 420,2013-06-30 02:42:00,
2013-06-30 04:49:00,61.6,42.8,29.97,North,-999,-999.0,-999.0,50,0.00,,,0.00,WSDL version 420,2013-06-30 02:49:00,
2013-06-30 04:54:00,61.4,42.6,29.97,North,-999,-999.0,-999.0,50,0.00,,,0.00,WSDL version 420,2013-06-30 02:54:00,
2013-06-30 04:59:00,61.3,42.6,29.97,North,-999,-999.0,-999.0,50,0.00,,,0.00,WSDL version 420,2013-06-30 02:59:00,
2013-06-30 05:04:00,61.2,42.5,29.97,North,-999,-999.0,-999.0,50,0.00,,,0.00,WSDL version 420,2013-06-30 03:04:00,
2013-06-30 05:11:00,60.7,42.5,29.97,North,-999,-999.0,-999.0,51,0.00,,,0.00,WSDL version 420,2013-06-30 03:11:00,
2013-06-30 05:18:00,60.6,42.4,29.97,North,-999,-999.0,-999.0,51,0.00,,,0.00,WSDL version 420,2013-06-30 03:18:00,
2013-06-30 05:28:00,59.9,42.3,29.97,North,-999,-999.0,-999.0,52,0.00,,,0.00,WSDL version 420,2013-06-30 03:28:00,
2013-06-30 05:36:00,59.6,42.1,29.97,North,-999,-999.0,-999.0,53,0.00,,,0.00,WSDL version 420,2013-06-30 03:36:00,
2013-06-30 05:41:00,59.4,42.2,29.97,North,-999,-999.0,-999.0,53,0.00,,,0.00,WSDL version 420,2013-06-30 03:41:00,
2013-06-30 05:46:00,59.5,42.4,29.97,North,-999,-999.0,-999.0,53,0.00,,,0.00,WSDL version 420,2013-06-30 03:46:00,
2013-06-30 05:56:00,59.4,42.3,29.97,North,-999,-999.0,-999.0,53,0.00,,,0.00,WSDL version 420,2013-06-30 03:56:00,
2013-06-30 06:03:00,61.3,43.5,29.97,North,-999,-999.0,-999.0,52,0.00,,,0.00,WSDL version 420,2013-06-30 04:03:00,
2013-06-30 06:10:00,62.9,44.3,29.97,North,-999,-999.0,-999.0,50,0.00,,,0.00,WSDL version 420,2013-06-30 04:10:00,
2013-06-30 06:15:00,64.2,44.9,29.97,North,-999,-999.0,-999.0,49,0.00,,,0.00,WSDL version 420,2013-06-30 04:15:00,
2013-06-30 06:20:00,65.2,45.0,29.97,North,-999,-999.0,-999.0,48,0.00,,,0.00,WSDL version 420,2013-06-30 04:20:00,
2013-06-30 06:25:00,66.4,45.6,29.97,North,-999,-999.0,-999.0,47,0.00,,,0.00,WSDL version 420,2013-06-30 04:25:00,
2013-06-30 06:32:00,67.3,45.4,29.97,North,-999,-999.0,-999.0,45,0.00,,,0.00,WSDL version 420,2013-06-30 04:32:00,
2013-06-30 06:42:00,68.0,45.3,29.97,North,-999,-999.0,-999.0,44,0.00,,,0.00,WSDL version 420,2013-06-30 04:42:00,
2013-06-30 06:52:00,67.5,44.8,29.97,North,-999,-999.0,-999.0,44,0.00,,,0.00,WSDL version 420,2013-06-30 04:52:00,
2013-06-30 06:57:00,66.9,44.3,29.97,North,-999,-999.0,-999.0,44,0.00,,,0.00,WSDL version 420,2013-06-30 04:57:00,
2013-06-30 07:02:00,66.8,44.2,29.97,North,-999,-999.0,-999.0,44,0.00,,,0.00,WSDL version 420,2013-06-30 05:02:00,
2013-06-30 07:07:00,67.2,44.6,29.97,North,-999,-999.0,-999.0,44,0.00,,,0.00,WSDL version 420,2013-06-30 05:07:00,
2013-06-30 07:14:00,67.8,44.5,29.97,North,-999,-999.0,-999.0,43,0.00,,,0.00,WSDL version 420,2013-06-30 05:14:00,
2013-06-30 07:19:00,68.3,45.0,29.97,North,-999,-999.0,-999.0,43,0.00,,,0.00,WSDL version 420,2013-06-30 05:19:00,
2013-06-30 07:25:00,68.4,44.8,30.00,North,-999,-999.0,-999.0,42,0.00,,,0.00,WSDL version 420,2013-06-30 05:25:00,
2013-06-30 07:30:00,68.7,44.7,30.00,North,-999,-999.0,-999.0,42,0.00,,,0.00,WSDL version 420,2013-06-30 05:30:00,
2013-06-30 07:35:00,68.7,44.7,30.00,North,-999,-999.0,-999.0,42,0.00,,,0.00,WSDL version 420,2013-06-30 05:35:00,
2013-06-30 07:46:00,69.6,45.3,30.00,North,-999,-999.0,-999.0,41,0.00,,,0.00,WSDL version 420,2013-06-30 05:46:00,
2013-06-30 07:52:00,70.3,45.3,30.00,North,-999,-999.0,-999.0,40,0.00,,,0.00,WSDL version 420,2013-06-30 05:52:00,
2013-06-30 07:59:00,-999.0,-99.9,30.00,North,-999,-999.0,-999.0,-999,0.00,,,0.00,WSDL version 420,2013-06-30 05:59:00,
2013-06-30 08:04:00,70.9,44.5,30.00,North,-999,-999.0,-999.0,39,0.00,,,0.00,WSDL version 420,2013-06-30 06:04:00,
2013-06-30 08:09:00,71.5,44.9,30.00,North,-999,-999.0,-999.0,38,0.00,,,0.00,WSDL version 420,2013-06-30 06:09:00,
2013-06-30 08:14:00,71.3,44.4,30.00,North,-999,-999.0,-999.0,38,0.00,,,0.00,WSDL version 420,2013-06-30 06:14:00,
2013-06-30 08:21:00,72.1,44.4,30.00,North,-999,-999.0,-999.0,37,0.00,,,0.00,WSDL version 420,2013-06-30 06:21:00,
2013-06-30 08:27:00,72.7,44.3,30.00,North,-999,-999.0,-999.0,36,0.00,,,0.00,WSDL version 420,2013-06-30 06:27:00,
2013-06-30 08:38:00,74.0,44.6,30.00,North,-999,-999.0,-999.0,35,0.00,,,0.00,WSDL version 420,2013-06-30 06:38:00,
2013-06-30 08:46:00,74.7,44.5,30.00,North,-999,-999.0,-999.0,34,0.00,,,0.00,WSDL version 420,2013-06-30 06:46:00,
2013-06-30 08:51:00,75.2,44.9,30.00,North,-999,-999.0,-999.0,34,0.00,,,0.00,WSDL version 420,2013-06-30 06:51:00,
2013-06-30 08:56:00,76.0,45.4,30.00,North,-999,-999.0,-999.0,33,0.00,,,0.00,WSDL version 420,2013-06-30 06:56:00,
2013-06-30 09:06:00,76.5,45.3,30.00,North,-999,-999.0,-999.0,33,0.00,,,0.00,WSDL version 420,2013-06-30 07:06:00,
2013-06-30 09:13:00,76.4,44.4,30.00,North,-999,-999.0,-999.0,32,0.00,,,0.00,WSDL version 420,2013-06-30 07:13:00,
2013-06-30 09:20:00,76.5,44.4,30.00,North,-999,-999.0,-999.0,32,0.00,,,0.00,WSDL version 420,2013-06-30 07:20:00,
2013-06-30 09:25:00,77.2,44.9,30.00,North,-999,-999.0,-999.0,31,0.00,,,0.00,WSDL version 420,2013-06-30 07:25:00,
2013-06-30 09:30:00,77.6,44.6,30.00,North,-999,-999.0,-999.0,31,0.00,,,0.00,WSDL version 420,2013-06-30 07:30:00,
2013-06-30 09:35:00,77.4,44.4,30.00,North,-999,-999.0,-999.0,31,0.00,,,0.00,WSDL version 420,2013-06-30 07:35:00,
2013-06-30 09:41:00,78.3,45.2,30.00,North,-999,-999.0,-999.0,31,0.00,,,0.00,WSDL version 420,2013-06-30 07:41:00,
2013-06-30 09:48:00,78.4,45.3,30.00,North,-999,-999.0,-999.0,31,0.00,,,0.00,WSDL version 420,2013-06-30 07:48:00,
2013-06-30 09:58:00,79.2,45.4,30.00,North,-999,-999.0,-999.0,30,0.00,,,0.00,WSDL version 420,2013-06-30 07:58:00,
2013-06-30 10:07:00,80.8,46.5,30.00,North,-999,-999.0,-999.0,30,0.00,,,0.00,WSDL version 420,2013-06-30 08:07:00,
2013-06-30 10:12:00,80.4,46.2,30.00,North,-999,-999.0,-999.0,30,0.00,,,0.00,WSDL version 420,2013-06-30 08:12:00,
2013-06-30 10:17:00,80.7,46.4,30.00,North,-999,-999.0,-999.0,30,0.00,,,0.00,WSDL version 420,2013-06-30 08:17:00,
2013-06-30 10:24:00,81.0,46.6,30.00,North,-999,-999.0,-999.0,30,0.00,,,0.00,WSDL version 420,2013-06-30 08:24:00,
2013-06-30 10:29:00,81.9,47.4,30.00,North,-999,-999.0,-999.0,30,0.00,,,0.00,WSDL version 420,2013-06-30 08:29:00,
2013-06-30 10:35:00,82.2,47.4,30.00,North,-999,-999.0,-999.0,29,0.00,,,0.00,WSDL version 420,2013-06-30 08:35:00,
2013-06-30 10:40:00,82.5,47.1,30.00,North,-999,-999.0,-999.0,29,0.00,,,0.00,WSDL version 420,2013-06-30 08:40:00,
2013-06-30 10:45:00,81.7,46.4,30.00,North,-999,-999.0,-999.0,29,0.00,,,0.00,WSDL version 420,2013-06-30 08:45:00,
2013-06-30 10:56:00,81.7,45.4,30.00,North,-999,-999.0,-999.0,28,0.00,,,0.00,WSDL version 420,2013-06-30 08:56:00,
2013-06-30 11:02:00,83.1,46.7,30.00,North,-999,-999.0,-999.0,28,0.00,,,0.00,WSDL version 420,2013-06-30 09:02:00,
2013-06-30 11:12:00,82.6,45.0,30.00,North,-999,-999.0,-999.0,27,0.00,,,0.00,WSDL version 420,2013-06-30 09:12:00,
2013-06-30 11:19:00,84.5,46.6,30.00,North,-999,-999.0,-999.0,27,0.00,,,0.00,WSDL version 420,2013-06-30 09:19:00,
2013-06-30 11:24:00,83.7,45.5,30.00,North,-999,-999.0,-999.0,26,0.00,,,0.00,WSDL version 420,2013-06-30 09:24:00,
2013-06-30 11:29:00,82.6,43.9,30.00,North,-999,-999.0,-999.0,25,0.00,,,0.00,WSDL version 420,2013-06-30 09:29:00,
2013-06-30 11:34:00,82.7,43.3,30.00,North,-999,-999.0,-999.0,24,0.00,,,0.00,WSDL version 420,2013-06-30 09:34:00,
2013-06-30 11:41:00,82.6,43.3,30.00,North,-999,-999.0,-999.0,25,0.00,,,0.00,WSDL version 420,2013-06-30 09:41:00,
2013-06-30 11:48:00,83.7,43.6,30.00,North,-999,-999.0,-999.0,24,0.00,,,0.00,WSDL version 420,2013-06-30 09:48:00,
2013-06-30 11:56:00,83.5,43.2,30.00,North,-999,-999.0,-999.0,24,0.00,,,0.00,WSDL version 420,2013-06-30 09:56:00,
2013-06-30 12:01:00,84.2,43.2,30.00,North,-999,-999.0,-999.0,23,0.00,,,0.00,WSDL version 420,2013-06-30 10:01:00,
2013-06-30 12:06:00,83.7,42.5,30.00,North,-999,-999.0,-999.0,23,0.00,,,0.00,WSDL version 420,2013-06-30 10:06:00,
2013-06-30 12:16:00,84.6,42.8,30.00,North,-999,-999.0,-999.0,23,0.00,,,0.00,WSDL version 420,2013-06-30 10:16:00,
2013-06-30 12:23:00,85.5,43.5,30.00,North,-999,-999.0,-999.0,23,0.00,,,0.00,WSDL version 420,2013-06-30 10:23:00,
2013-06-30 12:30:00,85.8,43.2,30.00,North,-999,-999.0,-999.0,23,0.00,,,0.00,WSDL version 420,2013-06-30 10:30:00,
2013-06-30 12:35:00,84.6,42.8,30.00,North,-999,-999.0,-999.0,23,0.00,,,0.00,WSDL version 420,2013-06-30 10:35:00,
2013-06-30 12:40:00,85.0,43.1,30.00,North,-999,-999.0,-999.0,23,0.00,,,0.00,WSDL version 420,2013-06-30 10:40:00,
2013-06-30 12:45:00,86.3,43.4,30.00,North,-999,-999.0,-999.0,22,0.00,,,0.00,WSDL version 420,2013-06-30 10:45:00,
2013-06-30 12:52:00,86.6,44.0,30.00,North,-999,-999.0,-999.0,22,0.00,,,0.00,WSDL version 420,2013-06-30 10:52:00,
2013-06-30 13:02:00,86.7,43.4,30.00,North,-999,-999.0,-999.0,22,0.00,,,0.00,WSDL version 420,2013-06-30 11:02:00,
2013-06-30 13:12:00,87.1,43.7,30.00,North,-999,-999.0,-999.0,22,0.00,,,0.00,WSDL version 420,2013-06-30 11:12:00,
2013-06-30 13:17:00,87.5,44.0,30.00,North,-999,-999.0,-999.0,22,0.00,,,0.00,WSDL version 420,2013-06-30 11:17:00,
2013-06-30 13:22:00,87.9,43.6,30.00,North,-999,-999.0,-999.0,21,0.00,,,0.00,WSDL version 420,2013-06-30 11:22:00,
2013-06-30 13:27:00,88.2,44.2,30.00,North,-999,-999.0,-999.0,22,0.00,,,0.00,WSDL version 420,2013-06-30 11:27:00,
2013-06-30 13:34:00,88.3,43.4,30.00,North,-999,-999.0,-999.0,21,0.00,,,0.00,WSDL version 420,2013-06-30 11:34:00,
2013-06-30 13:39:00,87.5,44.0,29.97,North,-999,-999.0,-999.0,22,0.00,,,0.00,WSDL version 420,2013-06-30 11:39:00,
2013-06-30 13:46:00,-999.0,-99.9,29.97,North,-999,-999.0,-999.0,-999,-99.99,,,-99.99,WSDL version 420,2013-06-30 11:46:00,
2013-06-30 13:51:00,87.8,44.3,29.97,North,-999,-999.0,-999.0,22,0.00,,,0.00,WSDL version 420,2013-06-30 11:51:00,
2013-06-30 13:56:00,88.3,44.7,29.97,North,-999,-999.0,-999.0,22,0.00,,,0.00,WSDL version 420,2013-06-30 11:56:00,
2013-06-30 14:06:00,89.2,46.6,29.97,North,-999,-999.0,-999.0,23,0.00,,,0.00,WSDL version 420,2013-06-30 12:06:00,
2013-06-30 14:12:00,87.8,45.4,29.97,North,-999,-999.0,-999.0,23,0.00,,,0.00,WSDL version 420,2013-06-30 12:12:00,
2013-06-30 14:21:00,87.7,45.8,29.97,North,-999,-999.0,-999.0,24,0.00,,,0.00,WSDL version 420,2013-06-30 12:21:00,
2013-06-30 14:28:00,87.5,46.3,29.97,North,-999,-999.0,-999.0,24,0.00,,,0.00,WSDL version 420,2013-06-30 12:28:00,
2013-06-30 14:34:00,87.3,46.5,29.97,North,-999,-999.0,-999.0,25,0.00,,,0.00,WSDL version 420,2013-06-30 12:34:00,
2013-06-30 14:39:00,87.4,47.3,29.97,North,-999,-999.0,-999.0,25,0.00,,,0.00,WSDL version 420,2013-06-30 12:39:00,
2013-06-30 14:46:00,87.4,47.0,29.97,North,-999,-999.0,-999.0,25,0.00,,,0.00,WSDL version 420,2013-06-30 12:46:00,
2013-06-30 14:51:00,87.3,47.2,29.97,North,-999,-999.0,-999.0,25,0.00,,,0.00,WSDL version 420,2013-06-30 12:51:00,
2013-06-30 14:56:00,87.1,47.1,29.97,North,-999,-999.0,-999.0,25,0.00,,,0.00,WSDL version 420,2013-06-30 12:56:00,
2013-06-30 15:03:00,86.5,46.6,29.97,North,-999,-999.0,-999.0,25,0.00,,,0.00,WSDL version 420,2013-06-30 13:03:00,
2013-06-30 15:10:00,87.2,47.1,29.97,North,-999,-999.0,-999.0,25,0.00,,,0.00,WSDL version 420,2013-06-30 13:10:00,
2013-06-30 15:15:00,87.6,47.4,29.97,North,-999,-999.0,-999.0,25,0.00,,,0.00,WSDL version 420,2013-06-30 13:15:00,
2013-06-30 15:20:00,86.8,46.8,29.97,North,-999,-999.0,-999.0,25,0.00,,,0.00,WSDL version 420,2013-06-30 13:20:00,
2013-06-30 15:25:00,87.1,47.0,29.97,North,-999,-999.0,-999.0,25,0.00,,,0.00,WSDL version 420,2013-06-30 13:25:00,
2013-06-30 15:31:00,87.0,46.2,29.97,North,-999,-999.0,-999.0,24,0.00,,,0.00,WSDL version 420,2013-06-30 13:31:00,
2013-06-30 15:38:00,87.0,46.6,29.97,North,-999,-999.0,-999.0,24,0.00,,,0.00,WSDL version 420,2013-06-30 13:38:00,
2013-06-30 15:52:00,86.4,45.7,29.97,North,-999,-999.0,-999.0,25,0.00,,,0.00,WSDL version 420,2013-06-30 13:52:00,
2013-06-30 15:57:00,86.7,45.6,29.97,North,-999,-999.0,-999.0,24,0.00,,,0.00,WSDL version 420,2013-06-30 13:57:00,
2013-06-30 16:02:00,86.6,45.6,29.97,North,-999,-999.0,-999.0,24,0.00,,,0.00,WSDL version 420,2013-06-30 14:02:00,
2013-06-30 16:07:00,86.0,45.4,29.97,North,-999,-999.0,-999.0,24,0.00,,,0.00,WSDL version 420,2013-06-30 14:07:00,
2013-06-30 16:14:00,86.5,45.8,29.97,North,-999,-999.0,-999.0,24,0.00,,,0.00,WSDL version 420,2013-06-30 14:14:00,
2013-06-30 16:19:00,86.3,45.3,29.97,North,-999,-999.0,-999.0,24,0.00,,,0.00,WSDL version 420,2013-06-30 14:19:00,
2013-06-30 16:25:00,86.4,45.4,29.97,North,-999,-999.0,-999.0,24,0.00,,,0.00,WSDL version 420,2013-06-30 14:25:00,
2013-06-30 16:30:00,85.9,45.5,29.97,North,-999,-999.0,-999.0,24,0.00,,,0.00,WSDL version 420,2013-06-30 14:30:00,
2013-06-30 16:35:00,86.2,45.3,29.97,North,-999,-999.0,-999.0,24,0.00,,,0.00,WSDL version 420,2013-06-30 14:35:00,
2013-06-30 16:45:00,86.8,45.7,29.97,North,-999,-999.0,-999.0,24,0.00,,,0.00,WSDL version 420,2013-06-30 14:45:00,
2013-06-30 16:52:00,86.2,45.2,29.97,North,-999,-999.0,-999.0,24,0.00,,,0.00,WSDL version 420,2013-06-30 14:52:00,
2013-06-30 17:02:00,85.8,45.4,29.97,North,-999,-999.0,-999.0,25,0.00,,,0.00,WSDL version 420,2013-06-30 15:02:00,
2013-06-30 17:13:00,85.0,44.8,29.97,North,-999,-999.0,-999.0,24,0.00,,,0.00,WSDL version 420,2013-06-30 15:13:00,
2013-06-30 17:18:00,85.2,45.4,29.97,North,-999,-999.0,-999.0,25,0.00,,,0.00,WSDL version 420,2013-06-30 15:18:00,
2013-06-30 17:23:00,84.7,45.1,29.97,North,-999,-999.0,-999.0,25,0.00,,,0.00,WSDL version 420,2013-06-30 15:23:00,
2013-06-30 17:28:00,84.9,45.2,29.97,North,-999,-999.0,-999.0,25,0.00,,,0.00,WSDL version 420,2013-06-30 15:28:00,
2013-06-30 17:34:00,84.7,45.1,29.97,North,-999,-999.0,-999.0,25,0.00,,,0.00,WSDL version 420,2013-06-30 15:34:00,
2013-06-30 17:39:00,84.1,44.5,29.97,North,-999,-999.0,-999.0,25,0.00,,,0.00,WSDL version 420,2013-06-30 15:39:00,
2013-06-30 17:46:00,83.6,44.4,29.97,North,-999,-999.0,-999.0,26,0.00,,,0.00,WSDL version 420,2013-06-30 15:46:00,
2013-06-30 17:51:00,83.5,45.1,29.97,North,-999,-999.0,-999.0,26,0.00,,,0.00,WSDL version 420,2013-06-30 15:51:00,
2013-06-30 17:56:00,83.2,44.8,29.97,North,-999,-999.0,-999.0,26,0.00,,,0.00,WSDL version 420,2013-06-30 15:56:00,
2013-06-30 18:06:00,82.5,44.2,29.97,North,-999,-999.0,-999.0,26,0.00,,,0.00,WSDL version 420,2013-06-30 16:06:00,
2013-06-30 18:13:00,82.5,44.2,29.97,North,-999,-999.0,-999.0,26,0.00,,,0.00,WSDL version 420,2013-06-30 16:13:00,
2013-06-30 18:23:00,82.4,45.1,29.97,North,-999,-999.0,-999.0,27,0.00,,,0.00,WSDL version 420,2013-06-30 16:23:00,
2013-06-30 18:33:00,82.0,45.7,29.97,North,-999,-999.0,-999.0,28,0.00,,,0.00,WSDL version 420,2013-06-30 16:33:00,
2013-06-30 18:38:00,81.9,45.7,30.00,North,-999,-999.0,-999.0,28,0.00,,,0.00,WSDL version 420,2013-06-30 16:38:00,
2013-06-30 18:43:00,81.9,46.5,30.00,North,-999,-999.0,-999.0,29,0.00,,,0.00,WSDL version 420,2013-06-30 16:43:00,
2013-06-30 18:48:00,81.6,45.7,30.00,North,-999,-999.0,-999.0,29,0.00,,,0.00,WSDL version 420,2013-06-30 16:48:00,
2013-06-30 18:55:00,81.3,46.1,30.00,North,-999,-999.0,-999.0,29,0.00,,,0.00,WSDL version 420,2013-06-30 16:55:00,
2013-06-30 19:02:00,81.0,45.8,30.00,North,-999,-999.0,-999.0,29,0.00,,,0.00,WSDL version 420,2013-06-30 17:02:00,
2013-06-30 19:07:00,80.7,45.5,30.00,North,-999,-999.0,-999.0,29,0.00,,,0.00,WSDL version 420,2013-06-30 17:07:00,
2013-06-30 19:12:00,80.9,45.7,30.00,North,-999,-999.0,-999.0,29,0.00,,,0.00,WSDL version 420,2013-06-30 17:12:00,
2013-06-30 19:17:00,81.2,46.0,30.00,North,-999,-999.0,-999.0,29,0.00,,,0.00,WSDL version 420,2013-06-30 17:17:00,
2013-06-30 19:23:00,80.7,45.5,30.00,North,-999,-999.0,-999.0,29,0.00,,,0.00,WSDL version 420,2013-06-30 17:23:00,
2013-06-30 19:28:00,80.8,45.7,30.00,North,-999,-999.0,-999.0,29,0.00,,,0.00,WSDL version 420,2013-06-30 17:28:00,
2013-06-30 19:35:00,81.9,46.5,30.00,North,-999,-999.0,-999.0,29,0.00,,,0.00,WSDL version 420,2013-06-30 17:35:00,
2013-06-30 19:40:00,82.3,45.7,30.00,North,-999,-999.0,-999.0,27,0.00,,,0.00,WSDL version 420,2013-06-30 17:40:00,
2013-06-30 19:45:00,81.9,44.7,30.00,North,-999,-999.0,-999.0,27,0.00,,,0.00,WSDL version 420,2013-06-30 17:45:00,
2013-06-30 19:55:00,81.9,45.3,30.00,North,-999,-999.0,-999.0,28,0.00,,,0.00,WSDL version 420,2013-06-30 17:55:00,
2013-06-30 20:02:00,81.6,45.4,30.00,North,-999,-999.0,-999.0,28,0.00,,,0.00,WSDL version 420,2013-06-30 18:02:00,
2013-06-30 20:12:00,81.6,46.3,30.00,North,-999,-999.0,-999.0,29,0.00,,,0.00,WSDL version 420,2013-06-30 18:12:00,
2013-06-30 20:23:00,79.3,45.2,30.00,North,-999,-999.0,-999.0,30,0.00,,,0.00,WSDL version 420,2013-06-30 18:23:00,
2013-06-30 20:28:00,78.2,44.3,30.00,North,-999,-999.0,-999.0,30,0.00,,,0.00,WSDL version 420,2013-06-30 18:28:00,
2013-06-30 20:33:00,77.5,43.7,30.00,North,-999,-999.0,-999.0,30,0.00,,,0.00,WSDL version 420,2013-06-30 18:33:00,
2013-06-30 20:38:00,76.8,43.9,30.00,North,-999,-999.0,-999.0,31,0.00,,,0.00,WSDL version 420,2013-06-30 18:38:00,
2013-06-30 20:44:00,76.1,43.9,30.00,North,-999,-999.0,-999.0,32,0.00,,,0.00,WSDL version 420,2013-06-30 18:44:00,
2013-06-30 20:49:00,75.6,43.7,30.00,North,-999,-999.0,-999.0,32,0.00,,,0.00,WSDL version 420,2013-06-30 18:49:00,
2013-06-30 20:56:00,75.1,44.1,30.00,North,-999,-999.0,-999.0,33,0.00,,,0.00,WSDL version 420,2013-06-30 18:56:00,
2013-06-30 21:01:00,74.7,44.5,30.00,North,-999,-999.0,-999.0,34,0.00,,,0.00,WSDL version 420,2013-06-30 19:01:00,
2013-06-30 21:06:00,74.4,44.7,30.00,North,-999,-999.0,-999.0,35,0.00,,,0.00,WSDL version 420,2013-06-30 19:06:00,
2013-06-30 21:16:00,73.9,44.8,30.00,North,-999,-999.0,-999.0,36,0.00,,,0.00,WSDL version 420,2013-06-30 19:16:00,
2013-06-30 21:23:00,73.5,45.2,30.00,North,-999,-999.0,-999.0,37,0.00,,,0.00,WSDL version 420,2013-06-30 19:23:00,
2013-06-30 21:33:00,73.0,46.0,30.00,North,-999,-999.0,-999.0,38,0.00,,,0.00,WSDL version 420,2013-06-30 19:33:00,
2013-06-30 21:43:00,72.4,46.1,30.00,North,-999,-999.0,-999.0,39,0.00,,,0.00,WSDL version 420,2013-06-30 19:43:00,
2013-06-30 21:48:00,72.1,45.8,30.00,North,-999,-999.0,-999.0,39,0.00,,,0.00,WSDL version 420,2013-06-30 19:48:00,
2013-06-30 21:53:00,71.8,45.1,30.03,North,-999,-999.0,-999.0,38,0.00,,,0.00,WSDL version 420,2013-06-30 19:53:00,
2013-06-30 21:58:00,71.8,45.5,30.03,North,-999,-999.0,-999.0,39,0.00,,,0.00,WSDL version 420,2013-06-30 19:58:00,
2013-06-30 22:05:00,71.6,45.1,30.03,North,-999,-999.0,-999.0,39,0.00,,,0.00,WSDL version 420,2013-06-30 20:05:00,
2013-06-30 22:10:00,71.1,44.9,30.03,North,-999,-999.0,-999.0,39,0.00,,,0.00,WSDL version 420,2013-06-30 20:10:00,
2013-06-30 22:15:00,70.8,45.1,30.03,North,-999,-999.0,-999.0,40,0.00,,,0.00,WSDL version 420,2013-06-30 20:15:00,
2013-06-30 22:25:00,70.5,45.4,30.03,North,-999,-999.0,-999.0,41,0.00,,,0.00,WSDL version 420,2013-06-30 20:25:00,
2013-06-30 22:30:00,69.9,45.3,30.03,North,-999,-999.0,-999.0,42,0.00,,,0.00,WSDL version 420,2013-06-30 20:30:00,
2013-06-30 22:35:00,69.6,45.5,30.03,North,-999,-999.0,-999.0,42,0.00,,,0.00,WSDL version 420,2013-06-30 20:35:00,
2013-06-30 22:42:00,69.6,46.0,30.03,North,-999,-999.0,-999.0,43,0.00,,,0.00,WSDL version 420,2013-06-30 20:42:00,
2013-06-30 22:51:00,69.3,46.0,30.03,North,-999,-999.0,-999.0,44,0.00,,,0.00,WSDL version 420,2013-06-30 20:51:00,
2013-06-30 22:57:00,69.1,46.6,30.03,North,-999,-999.0,-999.0,45,0.00,,,0.00,WSDL version 420,2013-06-30 20:57:00,
2013-06-30 23:06:00,69.1,46.9,30.03,North,-999,-999.0,-999.0,45,0.00,,,0.00,WSDL version 420,2013-06-30 21:06:00,
2013-06-30 23:11:00,69.0,47.2,30.03,North,-999,-999.0,-999.0,46,0.00,,,0.00,WSDL version 420,2013-06-30 21:11:00,
2013-06-30 23:16:00,68.8,47.2,30.03,North,-999,-999.0,-999.0,46,0.00,,,0.00,WSDL version 420,2013-06-30 21:16:00,
2013-06-30 23:26:00,68.4,47.2,30.03,North,-999,-999.0,-999.0,47,0.00,,,0.00,WSDL version 420,2013-06-30 21:26:00,
2013-06-30 23:33:00,68.2,47.2,30.03,North,-999,-999.0,-999.0,47,0.00,,,0.00,WSDL version 420,2013-06-30 21:33:00,
2013-06-30 23:39:00,68.0,47.6,30.03,North,-999,-999.0,-999.0,48,0.00,,,0.00,WSDL version 420,2013-06-30 21:39:00,
2013-06-30 23:48:00,67.7,47.5,30.03,North,-999,-999.0,-999.0,48,0.00,,,0.00,WSDL version 420,2013-06-30 21:48:00,
2013-06-30 23:56:00,67.6,47.6,30.03,North,-999,-999.0,-999.0,49,0.00,,,0.00,WSDL version 420,2013-06-30 21:56:00,